Engelbrecht, Jeff
United StatesManBorn 19582008 – 2025Runner id 78002
Events
68
64 race dates
Best pace
8.687
km/h · 2010
Best finish
25th
of 198 · 2011
Distance raced
6,684
km · splits not double-counted
Pace over time
km/h · higher is faster
Pace over time: 64 races and 4 splits from 2008 to 2025, ranging from 2.35 to 9.91 kilometres per hour, where higher is faster. A second, age-graded series is drawn above it; the gap between the two is the age credit.
- Actual pace
- Age-graded pace
- Split of a race already plotted
Results
| Date | Event | Distance | Result | Pace km/h | Placing |
|---|---|---|---|---|---|
| 2008-04-12 | 50mi | 13:03:55 h | 6.159 | 258/265 | |
| 2008-10-11 | 50mi | 10:47:14 h | 7.459 | 64/69 | |
| 2009-03-31 | 50km | 6:57:23 h | 7.188 | 262/385 | |
| 2009-04-18 | 50mi | 13:07:17 h | 6.133 | 266/266 | |
| 2009-07-18 | Lone Ranger 24 hr Ultra-MarathonUnited States | 24h | 129.108 km | 5.380 | 33/152 |
| 2010-03-07 | 50km | 5:45:21 h | 8.687 | 81/109 | |
| 2010-03-27 | 100mi | 28:02:28 h | 5.739 | 122/133 | |
| 2010-07-17 | 24h | 136.086 km | 5.670 | 32/158 | |
| 2010-10-03 | 50km | 6:49:58 h | 7.318 | 168/204 | |
| 2010-11-20 | 50mi | 10:55:19 h | 7.367 | 650/1014 | |
| 2011-04-09 | 50mi | 12:19:13 h | 6.531 | 296/320 | |
| 2011-07-16 | 24h | 145.790 km | 6.075 | 25/198 | |
| 2011-10-08 | 100km | 20:44:25 h | 4.822 | 43/50 | |
| 2012-02-25 | Febapple Frozen 50 kmUnited States | 50km | 7:36:52 h | 6.566 | 48/60 |
| 2012-03-24 | 50km | 7:28:32 h | 6.688 | 300/389 | |
| 2012-07-14 | 24h | 140.157 km | 5.840 | 32/195 | |
| 2012-09-22 | 100mi | 35:40:00 h | 4.512 | 32/32 | |
| 2013-02-23 | Febapple Frozen 50 kmUnited States | 50km | 7:46:42 h | 6.428 | 59/73 |
| 2013-03-23 | 50km | 7:37:10 h | 6.562 | 321/363 | |
| 2013-06-22 | Mason-Dixon Trail Longest Day 100K ChallengeUnited States | 100km | 23:45:00 h | 4.211 | 11/12 |
| 2013-09-01 | 12h | 72.420 km | 6.035 | 49/115 | |
| 2013-10-20 | 50mi | 10:38:13 h | 7.565 | 121/144 | |
| 2014-01-25 | 50km | 8:39:27 h | 5.775 | 35/41 | |
| 2014-03-22 | 50km | 7:48:09 h | 6.408 | 346/382 | |
| 2014-05-15 | 72h | 241.401 km | 3.353 | 30/62 | |
| 2014-05-15 | 3 Days at the Fair 72 Hour Race - 48h SplitUnited StatesIAU BronzeSplit of a longer race in this career; not counted again in the distance total*West Chester, PA | 48h | 180.246 km | 3.755 | 26/61 |
| 2014-10-11 | 50mi | 10:59:07 h | 7.325 | 77/93 | |
| 2015-01-03 | 50km | 7:47:14 h | 6.421 | 103/104 | |
| 2015-03-21 | New Jersey Ultra Festival 100 km RaceUnited States | 100km | 20:44:52 h | 4.820 | 10/10 |
| 2015-05-15 | 3 Days at the Fair 48 Hour RaceUnited States | 48h | 162.543 km | 3.386 | 23/41 |
| 2015-05-15 | 3 Days at the Fair 48 Hour Race - 24h SplitUnited StatesSplit of a longer race in this career; not counted again in the distance total | 24h | 115.872 km | 4.828 | 21/39 |
| 2015-07-18 | Lone Ranger 24 hr Urban UltraUnited States | 24h | 132.239 km | 5.510 | 19/128 |
| 2015-09-06 | Labor Pain 12 Hour Endurance Trail RunUnited States | 12h | 64.373 km | 5.364 | 74/170 |
| 2015-11-07 | 24h | 128.747 km | 5.364 | 26/72 | |
| 2016-01-16 | PHUNT 50K RunUnited States | 50km | 8:08:12 h | 6.145 | 104/104 |
| 2016-09-04 | 12h | 72.420 km | 6.035 | 71/230 | |
| 2016-09-10 | 100mi | 29:03:52 h | 5.537 | 20/22 | |
| 2016-11-11 | 24h | 111.044 km | 4.627 | 25/54 | |
| 2016-11-11 | NJ One Day 24 Hour Race - 50mi SplitUnited StatesIAU BronzeSplit of a longer race in this career; not counted again in the distance total*West Chester, PA | 50mi | 12:31:37 h | 6.424 | 37/47 |
| 2017-01-14 | 50km | 7:55:51 h | 6.305 | 108/113 | |
| 2017-03-04 | 40mi | 10:30:33 h | 6.125 | 81/83 | |
| 2017-04-01 | 100km | 26:47:13 h | 3.733 | 2/2 | |
| 2017-06-10 | Laurel Highlands 50 km UltraUnited States | 50km | 9:49:12 h | 5.092 | 78/78 |
| 2017-09-10 | 100mi | 28:45:54 h | 5.595 | 33/35 | |
| 2017-11-11 | 24h | 101.388 km | 4.225 | 23/59 | |
| 2018-01-13 | 50km | 7:42:31 h | 6.486 | 74/80 | |
| 2018-03-24 | 50mi | 15:24:54 h | 5.220 | 22/30 | |
| 2018-04-21 | 50km | 6:31:29 h | 7.663 | 41/50 | |
| 2018-05-17 | 72h | 225.308 km | 3.129 | 16/44 | |
| 2018-05-17 | 3 Days at the Fair 72 Hour Race - 48h SplitUnited StatesSplit of a longer race in this career; not counted again in the distance total | 48h | 162.543 km | 3.386 | 16/44 |
Showing 1–50 of 68